Ottawa, IL

3:06 AM CDT on August 25, 2016 (GMT -0500)
LaSalle County Government Complex | | Change Station
Active Advisory: Flash Flood Watch

Elev 614 ft 41.37 °N, 88.83 °W | Updated 4 minutes ago

Light Rain
Light Rain
71.1 °F
Feels Like 71.1 °F
N
4.0
Wind Variable Wind from SW
Gusts 9.0 mph

Today
High -- | Low -- °F
--% Chance of Precip.
Yesterday
High -- | Low -- °F
Precip. -- in
Pressure 30.02 in
Visibility 10.0 miles
Clouds Scattered Clouds 5500 ft
Scattered Clouds 7000 ft
Overcast 8000 ft
Dew Point 70 °F
Humidity 97%
Rainfall 0.30 in
Snow Depth Not available.
6:15 AM 7:38 PM
Waning Gibbous, 48% visible
METAR KVYS 250755Z AUTO 23007KT 10SM -RA SCT055 SCT070 OVC080 22/22 A3002 RMK AO2 LTG DSNT S P0004 T02200220
Pressure 30.02 in
Visibility 10.0 miles
Clouds Scattered Clouds 5500 ft
Scattered Clouds 7000 ft
Overcast 8000 ft
Dew Point 70 °F
Humidity 97%
Rainfall 0.30 in
Snow Depth Not available.
6:15 AM 7:38 PM
Waning Gibbous, 48% visible
METAR KVYS 250755Z AUTO 23007KT 10SM -RA SCT055 SCT070 OVC080 22/22 A3002 RMK AO2 LTG DSNT S P0004 T02200220

10-Day Weather Forecast

Almanac

Astronomy

Aug. 25, 2016 Rise Set
Actual Time
Civil Twilight
Nautical Twilight
Astronomical Twilight
Moon
Length of Visible Light
Length of Day
Tomorrow will be .
, % of the Moon is Illuminated

Today's Extremes

State Highs State Lows

Community

WunderPhotos

Upload Photos

1,934,814 photos uploaded!

WunderBlog® & News

Nearby

Air Quality

  Air Quality AQ Index Pollutant
Not available.

Snow Depth

Station Depth Elevation

Earthquake Activity

City Distance Mag. Time & Date
Minimum magnitude displayed is 2.5.

Coastal Water Temperatures

Place Temperature

Stations

Nearby Weather Stations

Station Location Temp. Windchill Dew Point Humidity Wind Precip. Elev Updated Type
                   

Watches & Warnings

Flash Flood Watch
Issued: 9:38 PM CDT Aug. 24, 2016 – National Weather Service

... Flash Flood Watch remains in effect from 1 am CDT Thursday
through Thursday morning...

The Flash Flood Watch continues for

* portions of central Illinois... north central Illinois and
northeast Illinois... including the following counties... in
central Illinois... Livingston. In north central Illinois... La
Salle and Lee. In northeast Illinois... Grundy and Kendall.

* From 1 am CDT Thursday through Thursday morning.

* Very heavy rainfall of 2 to 3 inches... or more... over short
periods of time from thunderstorms developing late tonight
into early tomorrow morning.

* Flash flooding is possible along creeks... streams... and other
low lying and flood prone areas. Water may also cover roads
along with rapid rises on local streams.

Precautionary/preparedness actions...

A Flash Flood Watch means that conditions may develop that lead
to flash flooding. Flash flooding is a very dangerous situation.

You should monitor later forecasts and be prepared to take action
should flash flood warnings be issued.



Izzi